sensor_id;sensor_type;location;lat;lon;timestamp;pressure;altitude;pressure_sealevel;temperature;humidity
59650;BME280;46162;57.568;25.814;2023-01-27T00:00:38;101334.75;;;-1.43;100.00
59650;BME280;46162;57.568;25.814;2023-01-27T00:03:10;101339.97;;;-1.42;100.00
59650;BME280;46162;57.568;25.814;2023-01-27T00:05:39;101338.16;;;-1.41;100.00
59650;BME280;46162;57.568;25.814;2023-01-27T00:08:09;101343.59;;;-1.44;100.00
59650;BME280;46162;57.568;25.814;2023-01-27T00:10:38;101345.22;;;-1.40;100.00
59650;BME280;46162;57.568;25.814;2023-01-27T00:13:08;101352.97;;;-1.36;100.00
59650;BME280;46162;57.568;25.814;2023-01-27T00:15:54;101350.56;;;-1.42;100.00
59650;BME280;46162;57.568;25.814;2023-01-27T00:18:23;101352.47;;;-1.45;100.00
59650;BME280;46162;57.568;25.814;2023-01-27T00:20:52;101345.94;;;-1.37;100.00
59650;BME280;46162;57.568;25.814;2023-01-27T00:23:39;101353.88;;;-1.37;100.00
59650;BME280;46162;57.568;25.814;2023-01-27T00:26:24;101355.56;;;-1.34;100.00
59650;BME280;46162;57.568;25.814;2023-01-27T00:28:53;101361.66;;;-1.32;100.00
59650;BME280;46162;57.568;25.814;2023-01-27T00:31:22;101365.28;;;-1.35;100.00
59650;BME280;46162;57.568;25.814;2023-01-27T00:34:07;101367.09;;;-1.35;100.00
59650;BME280;46162;57.568;25.814;2023-01-27T00:36:39;101363.78;;;-1.42;100.00
59650;BME280;46162;57.568;25.814;2023-01-27T00:39:10;101363.56;;;-1.36;100.00
59650;BME280;46162;57.568;25.814;2023-01-27T00:41:42;101357.50;;;-1.39;100.00
59650;BME280;46162;57.568;25.814;2023-01-27T00:44:11;101372.25;;;-1.32;100.00
59650;BME280;46162;57.568;25.814;2023-01-27T00:46:40;101367.81;;;-1.32;100.00
59650;BME280;46162;57.568;25.814;2023-01-27T00:49:09;101368.00;;;-1.36;100.00
59650;BME280;46162;57.568;25.814;2023-01-27T00:51:39;101368.78;;;-1.34;100.00
59650;BME280;46162;57.568;25.814;2023-01-27T00:54:09;101374.56;;;-1.23;100.00
59650;BME280;46162;57.568;25.814;2023-01-27T00:56:38;101369.56;;;-1.31;100.00
59650;BME280;46162;57.568;25.814;2023-01-27T00:59:06;101373.41;;;-1.39;100.00
59650;BME280;46162;57.568;25.814;2023-01-27T01:01:35;101388.50;;;-1.41;100.00
59650;BME280;46162;57.568;25.814;2023-01-27T01:04:04;101380.50;;;-1.40;100.00
59650;BME280;46162;57.568;25.814;2023-01-27T01:06:32;101393.91;;;-1.44;100.00
59650;BME280;46162;57.568;25.814;2023-01-27T01:09:02;101391.31;;;-1.46;100.00
59650;BME280;46162;57.568;25.814;2023-01-27T01:11:32;101394.13;;;-1.27;100.00
59650;BME280;46162;57.568;25.814;2023-01-27T01:14:00;101393.00;;;-1.43;100.00
59650;BME280;46162;57.568;25.814;2023-01-27T01:16:29;101390.53;;;-1.48;100.00
59650;BME280;46162;57.568;25.814;2023-01-27T01:18:59;101385.41;;;-1.53;100.00
59650;BME280;46162;57.568;25.814;2023-01-27T01:21:27;101392.41;;;-1.52;100.00
59650;BME280;46162;57.568;25.814;2023-01-27T01:23:56;101394.59;;;-1.39;100.00
59650;BME280;46162;57.568;25.814;2023-01-27T01:26:25;101388.97;;;-1.30;100.00
59650;BME280;46162;57.568;25.814;2023-01-27T01:28:55;101392.72;;;-1.36;100.00
59650;BME280;46162;57.568;25.814;2023-01-27T01:31:26;101392.25;;;-1.47;100.00
59650;BME280;46162;57.568;25.814;2023-01-27T01:33:55;101392.13;;;-1.44;100.00
59650;BME280;46162;57.568;25.814;2023-01-27T01:36:23;101397.06;;;-1.35;100.00
59650;BME280;46162;57.568;25.814;2023-01-27T01:38:54;101405.44;;;-1.45;100.00
59650;BME280;46162;57.568;25.814;2023-01-27T01:41:23;101404.34;;;-1.40;100.00
59650;BME280;46162;57.568;25.814;2023-01-27T01:43:52;101407.50;;;-1.54;100.00
59650;BME280;46162;57.568;25.814;2023-01-27T01:46:22;101411.06;;;-1.55;100.00
59650;BME280;46162;57.568;25.814;2023-01-27T01:48:53;101402.19;;;-1.54;100.00
59650;BME280;46162;57.568;25.814;2023-01-27T01:51:26;101409.44;;;-1.59;100.00
59650;BME280;46162;57.568;25.814;2023-01-27T01:53:59;101423.63;;;-1.60;100.00
59650;BME280;46162;57.568;25.814;2023-01-27T01:56:34;101420.94;;;-1.58;100.00
59650;BME280;46162;57.568;25.814;2023-01-27T01:59:10;101418.72;;;-1.47;100.00
59650;BME280;46162;57.568;25.814;2023-01-27T02:01:42;101423.50;;;-1.57;100.00
59650;BME280;46162;57.568;25.814;2023-01-27T02:04:14;101421.72;;;-1.56;100.00
59650;BME280;46162;57.568;25.814;2023-01-27T02:06:49;101420.53;;;-1.47;100.00
59650;BME280;46162;57.568;25.814;2023-01-27T02:09:20;101416.94;;;-1.46;100.00
59650;BME280;46162;57.568;25.814;2023-01-27T02:11:50;101410.94;;;-1.52;100.00
59650;BME280;46162;57.568;25.814;2023-01-27T02:14:19;101416.03;;;-1.45;100.00
59650;BME280;46162;57.568;25.814;2023-01-27T02:16:49;101410.13;;;-1.54;100.00
59650;BME280;46162;57.568;25.814;2023-01-27T02:19:22;101409.97;;;-1.49;100.00
59650;BME280;46162;57.568;25.814;2023-01-27T02:21:53;101416.13;;;-1.48;100.00
59650;BME280;46162;57.568;25.814;2023-01-27T02:24:31;101426.66;;;-1.47;100.00
59650;BME280;46162;57.568;25.814;2023-01-27T02:27:05;101425.00;;;-1.49;100.00
59650;BME280;46162;57.568;25.814;2023-01-27T02:29:33;101425.00;;;-1.49;100.00
59650;BME280;46162;57.568;25.814;2023-01-27T02:32:02;101429.31;;;-1.47;100.00
59650;BME280;46162;57.568;25.814;2023-01-27T02:34:33;101439.28;;;-1.54;100.00
59650;BME280;46162;57.568;25.814;2023-01-27T02:37:06;101443.72;;;-1.54;100.00
59650;BME280;46162;57.568;25.814;2023-01-27T02:39:39;101447.44;;;-1.60;100.00
59650;BME280;46162;57.568;25.814;2023-01-27T02:42:13;101448.34;;;-1.61;100.00
59650;BME280;46162;57.568;25.814;2023-01-27T02:44:43;101444.91;;;-1.63;100.00
59650;BME280;46162;57.568;25.814;2023-01-27T02:47:12;101444.03;;;-1.63;100.00
59650;BME280;46162;57.568;25.814;2023-01-27T02:49:41;101461.59;;;-1.61;100.00
59650;BME280;46162;57.568;25.814;2023-01-27T02:52:10;101459.84;;;-1.60;100.00
59650;BME280;46162;57.568;25.814;2023-01-27T02:54:39;101462.53;;;-1.62;100.00
59650;BME280;46162;57.568;25.814;2023-01-27T02:57:07;101459.06;;;-1.64;100.00
59650;BME280;46162;57.568;25.814;2023-01-27T02:59:51;101455.50;;;-1.63;100.00
59650;BME280;46162;57.568;25.814;2023-01-27T03:02:20;101460.81;;;-1.63;100.00
59650;BME280;46162;57.568;25.814;2023-01-27T03:04:56;101463.38;;;-1.61;100.00
59650;BME280;46162;57.568;25.814;2023-01-27T03:07:25;101465.97;;;-1.60;100.00
59650;BME280;46162;57.568;25.814;2023-01-27T03:09:54;101468.50;;;-1.57;100.00
59650;BME280;46162;57.568;25.814;2023-01-27T03:12:23;101469.97;;;-1.48;100.00
59650;BME280;46162;57.568;25.814;2023-01-27T03:14:53;101460.69;;;-1.60;100.00
59650;BME280;46162;57.568;25.814;2023-01-27T03:17:42;101460.69;;;-1.60;100.00
59650;BME280;46162;57.568;25.814;2023-01-27T03:20:28;101455.34;;;-1.58;100.00
59650;BME280;46162;57.568;25.814;2023-01-27T03:22:57;101452.47;;;-1.52;100.00
59650;BME280;46162;57.568;25.814;2023-01-27T03:25:26;101464.03;;;-1.55;100.00
59650;BME280;46162;57.568;25.814;2023-01-27T03:27:55;101464.06;;;-1.56;100.00
59650;BME280;46162;57.568;25.814;2023-01-27T03:30:46;101465.94;;;-1.58;100.00
59650;BME280;46162;57.568;25.814;2023-01-27T03:33:23;101454.56;;;-1.62;100.00
59650;BME280;46162;57.568;25.814;2023-01-27T03:35:52;101458.84;;;-1.58;100.00
59650;BME280;46162;57.568;25.814;2023-01-27T03:38:49;101472.78;;;-1.53;100.00
59650;BME280;46162;57.568;25.814;2023-01-27T03:41:35;101469.38;;;-1.56;100.00
59650;BME280;46162;57.568;25.814;2023-01-27T03:44:25;101480.13;;;-1.61;100.00
59650;BME280;46162;57.568;25.814;2023-01-27T03:47:12;101494.28;;;-1.62;100.00
59650;BME280;46162;57.568;25.814;2023-01-27T03:49:41;101486.50;;;-1.66;100.00
59650;BME280;46162;57.568;25.814;2023-01-27T03:52:09;101485.41;;;-1.61;100.00
59650;BME280;46162;57.568;25.814;2023-01-27T03:54:38;101487.47;;;-1.69;100.00
59650;BME280;46162;57.568;25.814;2023-01-27T03:57:07;101494.41;;;-1.65;100.00
59650;BME280;46162;57.568;25.814;2023-01-27T03:59:35;101492.66;;;-1.66;100.00
59650;BME280;46162;57.568;25.814;2023-01-27T04:02:04;101491.69;;;-1.63;100.00
59650;BME280;46162;57.568;25.814;2023-01-27T04:04:52;101495.31;;;-1.66;100.00
59650;BME280;46162;57.568;25.814;2023-01-27T04:07:39;101499.00;;;-1.70;100.00
59650;BME280;46162;57.568;25.814;2023-01-27T04:10:09;101502.41;;;-1.66;100.00
59650;BME280;46162;57.568;25.814;2023-01-27T04:12:39;101515.59;;;-1.65;100.00
59650;BME280;46162;57.568;25.814;2023-01-27T04:15:07;101516.44;;;-1.64;100.00
59650;BME280;46162;57.568;25.814;2023-01-27T04:17:37;101517.28;;;-1.62;100.00
59650;BME280;46162;57.568;25.814;2023-01-27T04:20:10;101521.63;;;-1.61;100.00
59650;BME280;46162;57.568;25.814;2023-01-27T04:22:39;101526.19;;;-1.65;100.00
59650;BME280;46162;57.568;25.814;2023-01-27T04:25:09;101525.25;;;-1.64;100.00
59650;BME280;46162;57.568;25.814;2023-01-27T04:27:39;101535.00;;;-1.64;100.00
59650;BME280;46162;57.568;25.814;2023-01-27T04:30:12;101538.59;;;-1.67;100.00
59650;BME280;46162;57.568;25.814;2023-01-27T04:32:45;101536.53;;;-1.59;100.00
59650;BME280;46162;57.568;25.814;2023-01-27T04:35:16;101541.84;;;-1.59;100.00
59650;BME280;46162;57.568;25.814;2023-01-27T04:37:47;101543.78;;;-1.64;100.00
59650;BME280;46162;57.568;25.814;2023-01-27T04:40:16;101535.50;;;-1.53;100.00
59650;BME280;46162;57.568;25.814;2023-01-27T04:42:52;101544.56;;;-1.60;100.00
59650;BME280;46162;57.568;25.814;2023-01-27T04:45:21;101553.25;;;-1.57;100.00
59650;BME280;46162;57.568;25.814;2023-01-27T04:47:53;101551.69;;;-1.62;100.00
59650;BME280;46162;57.568;25.814;2023-01-27T04:50:24;101554.19;;;-1.58;100.00
59650;BME280;46162;57.568;25.814;2023-01-27T04:52:55;101554.13;;;-1.56;100.00
59650;BME280;46162;57.568;25.814;2023-01-27T04:55:24;101558.25;;;-1.74;100.00
59650;BME280;46162;57.568;25.814;2023-01-27T04:57:53;101565.19;;;-1.70;100.00
59650;BME280;46162;57.568;25.814;2023-01-27T05:00:22;101561.88;;;-1.77;100.00
59650;BME280;46162;57.568;25.814;2023-01-27T05:02:51;101556.25;;;-1.92;100.00
59650;BME280;46162;57.568;25.814;2023-01-27T05:05:20;101555.47;;;-1.96;100.00
59650;BME280;46162;57.568;25.814;2023-01-27T05:07:51;101556.31;;;-1.96;100.00
59650;BME280;46162;57.568;25.814;2023-01-27T05:10:19;101550.31;;;-2.01;100.00
59650;BME280;46162;57.568;25.814;2023-01-27T05:12:48;101550.94;;;-1.92;100.00
59650;BME280;46162;57.568;25.814;2023-01-27T05:15:17;101560.19;;;-2.06;100.00
59650;BME280;46162;57.568;25.814;2023-01-27T05:17:46;101560.03;;;-2.01;100.00
59650;BME280;46162;57.568;25.814;2023-01-27T05:20:15;101561.94;;;-2.05;100.00
59650;BME280;46162;57.568;25.814;2023-01-27T05:22:44;101565.63;;;-2.10;100.00
59650;BME280;46162;57.568;25.814;2023-01-27T05:25:15;101571.81;;;-2.10;100.00
59650;BME280;46162;57.568;25.814;2023-01-27T05:27:43;101565.34;;;-2.01;100.00
59650;BME280;46162;57.568;25.814;2023-01-27T05:30:13;101565.22;;;-1.98;100.00
59650;BME280;46162;57.568;25.814;2023-01-27T05:32:41;101567.16;;;-2.03;100.00
59650;BME280;46162;57.568;25.814;2023-01-27T05:35:10;101567.97;;;-2.01;100.00
59650;BME280;46162;57.568;25.814;2023-01-27T05:37:39;101576.88;;;-2.04;100.00
59650;BME280;46162;57.568;25.814;2023-01-27T05:40:09;101577.66;;;-2.00;100.00
59650;BME280;46162;57.568;25.814;2023-01-27T05:42:39;101579.44;;;-2.01;100.00
59650;BME280;46162;57.568;25.814;2023-01-27T05:45:09;101589.13;;;-2.00;100.00
59650;BME280;46162;57.568;25.814;2023-01-27T05:47:38;101596.28;;;-2.03;100.00
59650;BME280;46162;57.568;25.814;2023-01-27T05:50:07;101597.78;;;-1.95;100.00
59650;BME280;46162;57.568;25.814;2023-01-27T05:52:36;101597.16;;;-2.03;100.00
59650;BME280;46162;57.568;25.814;2023-01-27T05:55:06;101596.94;;;-1.97;100.00
59650;BME280;46162;57.568;25.814;2023-01-27T05:57:34;101604.28;;;-2.05;100.00
59650;BME280;46162;57.568;25.814;2023-01-27T06:00:06;101599.63;;;-1.98;100.00
59650;BME280;46162;57.568;25.814;2023-01-27T06:02:34;101599.59;;;-1.97;100.00
59650;BME280;46162;57.568;25.814;2023-01-27T06:05:04;101611.41;;;-2.07;100.00
59650;BME280;46162;57.568;25.814;2023-01-27T06:07:32;101619.34;;;-2.07;100.00
59650;BME280;46162;57.568;25.814;2023-01-27T06:10:01;101620.41;;;-2.12;100.00
59650;BME280;46162;57.568;25.814;2023-01-27T06:12:29;101621.25;;;-2.12;100.00
59650;BME280;46162;57.568;25.814;2023-01-27T06:14:58;101628.34;;;-2.12;100.00
59650;BME280;46162;57.568;25.814;2023-01-27T06:17:28;101631.94;;;-2.15;100.00
59650;BME280;46162;57.568;25.814;2023-01-27T06:19:57;101637.97;;;-2.10;100.00
59650;BME280;46162;57.568;25.814;2023-01-27T06:22:25;101646.31;;;-1.96;100.00
59650;BME280;46162;57.568;25.814;2023-01-27T06:24:54;101640.16;;;-1.96;100.00
59650;BME280;46162;57.568;25.814;2023-01-27T06:27:22;101634.63;;;-1.88;100.00
59650;BME280;46162;57.568;25.814;2023-01-27T06:29:51;101646.63;;;-2.05;100.00
59650;BME280;46162;57.568;25.814;2023-01-27T06:32:20;101648.16;;;-1.98;100.00
59650;BME280;46162;57.568;25.814;2023-01-27T06:34:50;101649.34;;;-2.08;100.00
59650;BME280;46162;57.568;25.814;2023-01-27T06:37:18;101653.75;;;-2.08;100.00
59650;BME280;46162;57.568;25.814;2023-01-27T06:39:47;101663.59;;;-2.12;100.00
59650;BME280;46162;57.568;25.814;2023-01-27T06:42:15;101662.81;;;-2.16;100.00
59650;BME280;46162;57.568;25.814;2023-01-27T06:44:44;101663.81;;;-2.20;100.00
59650;BME280;46162;57.568;25.814;2023-01-27T06:47:13;101665.59;;;-2.20;100.00
59650;BME280;46162;57.568;25.814;2023-01-27T06:49:41;101677.06;;;-2.20;100.00
59650;BME280;46162;57.568;25.814;2023-01-27T06:52:11;101671.63;;;-2.15;100.00
59650;BME280;46162;57.568;25.814;2023-01-27T06:54:40;101672.63;;;-2.19;100.00
59650;BME280;46162;57.568;25.814;2023-01-27T06:57:08;101683.22;;;-2.19;100.00
59650;BME280;46162;57.568;25.814;2023-01-27T06:59:37;101682.22;;;-2.15;100.00
59650;BME280;46162;57.568;25.814;2023-01-27T07:02:08;101690.22;;;-2.18;100.00
59650;BME280;46162;57.568;25.814;2023-01-27T07:04:37;101691.13;;;-2.18;100.00
59650;BME280;46162;57.568;25.814;2023-01-27T07:07:05;101707.47;;;-2.05;100.00
59650;BME280;46162;57.568;25.814;2023-01-27T07:09:35;101706.56;;;-2.04;100.00
59650;BME280;46162;57.568;25.814;2023-01-27T07:12:18;101701.81;;;-1.92;100.00
59650;BME280;46162;57.568;25.814;2023-01-27T07:14:46;101712.28;;;-1.89;100.00
59650;BME280;46162;57.568;25.814;2023-01-27T07:17:15;101698.13;;;-1.88;100.00
59650;BME280;46162;57.568;25.814;2023-01-27T07:19:43;101714.59;;;-2.07;100.00
59650;BME280;46162;57.568;25.814;2023-01-27T07:22:12;101721.69;;;-2.09;100.00
59650;BME280;46162;57.568;25.814;2023-01-27T07:24:42;101718.22;;;-2.11;100.00
59650;BME280;46162;57.568;25.814;2023-01-27T07:27:10;101722.56;;;-2.08;100.00
59650;BME280;46162;57.568;25.814;2023-01-27T07:29:39;101726.81;;;-2.03;100.00
59650;BME280;46162;57.568;25.814;2023-01-27T07:32:07;101736.44;;;-2.00;100.00
59650;BME280;46162;57.568;25.814;2023-01-27T07:34:36;101739.03;;;-1.99;100.00
59650;BME280;46162;57.568;25.814;2023-01-27T07:37:05;101732.13;;;-2.03;100.00
59650;BME280;46162;57.568;25.814;2023-01-27T07:39:35;101743.69;;;-2.07;100.00
59650;BME280;46162;57.568;25.814;2023-01-27T07:42:06;101738.19;;;-1.99;100.00
59650;BME280;46162;57.568;25.814;2023-01-27T07:44:35;101740.06;;;-2.03;100.00
59650;BME280;46162;57.568;25.814;2023-01-27T07:47:04;101746.50;;;-2.13;100.00
59650;BME280;46162;57.568;25.814;2023-01-27T07:49:33;101747.53;;;-2.17;100.00
59650;BME280;46162;57.568;25.814;2023-01-27T07:52:01;101747.59;;;-2.20;100.00
59650;BME280;46162;57.568;25.814;2023-01-27T07:54:30;101761.63;;;-2.17;100.00
59650;BME280;46162;57.568;25.814;2023-01-27T07:56:59;101758.00;;;-2.14;100.00
59650;BME280;46162;57.568;25.814;2023-01-27T07:59:29;101762.44;;;-2.14;100.00
59650;BME280;46162;57.568;25.814;2023-01-27T08:01:58;101761.72;;;-2.20;100.00
59650;BME280;46162;57.568;25.814;2023-01-27T08:04:26;101768.63;;;-2.16;100.00
59650;BME280;46162;57.568;25.814;2023-01-27T08:06:57;101780.09;;;-2.15;100.00
59650;BME280;46162;57.568;25.814;2023-01-27T08:09:26;101781.81;;;-2.14;100.00
59650;BME280;46162;57.568;25.814;2023-01-27T08:11:54;101783.38;;;-2.07;100.00
59650;BME280;46162;57.568;25.814;2023-01-27T08:14:23;101795.88;;;-2.12;100.00
59650;BME280;46162;57.568;25.814;2023-01-27T08:16:53;101792.16;;;-2.05;100.00
59650;BME280;46162;57.568;25.814;2023-01-27T08:19:22;101795.63;;;-2.03;100.00
59650;BME280;46162;57.568;25.814;2023-01-27T08:21:50;101797.44;;;-2.05;100.00
59650;BME280;46162;57.568;25.814;2023-01-27T08:24:19;101791.97;;;-1.99;100.00
59650;BME280;46162;57.568;25.814;2023-01-27T08:26:47;101791.22;;;-2.04;100.00
59650;BME280;46162;57.568;25.814;2023-01-27T08:29:16;101791.25;;;-2.05;100.00
59650;BME280;46162;57.568;25.814;2023-01-27T08:31:45;101795.09;;;-2.16;100.00
59650;BME280;46162;57.568;25.814;2023-01-27T08:34:15;101797.19;;;-2.27;100.00
59650;BME280;46162;57.568;25.814;2023-01-27T08:36:44;101795.41;;;-2.26;100.00
59650;BME280;46162;57.568;25.814;2023-01-27T08:39:12;101791.03;;;-2.27;100.00
59650;BME280;46162;57.568;25.814;2023-01-27T08:41:41;101794.44;;;-2.24;100.00
59650;BME280;46162;57.568;25.814;2023-01-27T08:44:09;101797.06;;;-2.22;100.00
59650;BME280;46162;57.568;25.814;2023-01-27T08:46:38;101803.16;;;-2.20;100.00
59650;BME280;46162;57.568;25.814;2023-01-27T08:49:06;101804.03;;;-2.20;100.00
59650;BME280;46162;57.568;25.814;2023-01-27T08:51:36;101811.03;;;-2.17;100.00
59650;BME280;46162;57.568;25.814;2023-01-27T08:54:05;101814.53;;;-2.17;100.00
59650;BME280;46162;57.568;25.814;2023-01-27T08:56:34;101814.44;;;-2.13;100.00
59650;BME280;46162;57.568;25.814;2023-01-27T08:59:03;101806.56;;;-2.15;100.00
59650;BME280;46162;57.568;25.814;2023-01-27T09:01:31;101812.44;;;-2.05;100.00
59650;BME280;46162;57.568;25.814;2023-01-27T09:04:00;101820.97;;;-1.96;100.00
59650;BME280;46162;57.568;25.814;2023-01-27T09:06:29;101821.94;;;-1.98;100.00
59650;BME280;46162;57.568;25.814;2023-01-27T09:08:59;101815.03;;;-2.04;100.00
59650;BME280;46162;57.568;25.814;2023-01-27T09:11:41;101819.16;;;-1.93;100.00
59650;BME280;46162;57.568;25.814;2023-01-27T09:14:10;101824.75;;;-2.03;100.00
59650;BME280;46162;57.568;25.814;2023-01-27T09:16:39;101819.38;;;-2.01;100.00
59650;BME280;46162;57.568;25.814;2023-01-27T09:19:08;101824.66;;;-2.00;100.00
59650;BME280;46162;57.568;25.814;2023-01-27T09:21:37;101816.66;;;-1.98;100.00
59650;BME280;46162;57.568;25.814;2023-01-27T09:24:06;101823.91;;;-2.05;100.00
59650;BME280;46162;57.568;25.814;2023-01-27T09:26:35;101823.72;;;-1.99;100.00
59650;BME280;46162;57.568;25.814;2023-01-27T09:29:04;101825.47;;;-1.98;100.00
59650;BME280;46162;57.568;25.814;2023-01-27T09:31:32;101827.50;;;-2.07;100.00
59650;BME280;46162;57.568;25.814;2023-01-27T09:34:01;101828.50;;;-2.11;100.00
59650;BME280;46162;57.568;25.814;2023-01-27T09:36:31;101827.44;;;-2.06;100.00
59650;BME280;46162;57.568;25.814;2023-01-27T09:39:05;101827.41;;;-2.04;100.00
59650;BME280;46162;57.568;25.814;2023-01-27T09:42:10;101827.53;;;-2.09;100.00
59650;BME280;46162;57.568;25.814;2023-01-27T09:45:09;101832.06;;;-2.12;100.00
59650;BME280;46162;57.568;25.814;2023-01-27T09:47:54;101835.59;;;-2.13;100.00
59650;BME280;46162;57.568;25.814;2023-01-27T09:50:38;101833.09;;;-2.18;100.00
59650;BME280;46162;57.568;25.814;2023-01-27T09:56:17;101829.44;;;-2.14;100.00
59650;BME280;46162;57.568;25.814;2023-01-27T09:59:03;101821.63;;;-2.19;100.00
59650;BME280;46162;57.568;25.814;2023-01-27T10:01:44;101815.59;;;-2.22;100.00
59650;BME280;46162;57.568;25.814;2023-01-27T10:04:29;101822.44;;;-2.15;100.00
59650;BME280;46162;57.568;25.814;2023-01-27T10:07:15;101834.88;;;-2.19;100.00
59650;BME280;46162;57.568;25.814;2023-01-27T10:09:58;101842.84;;;-2.20;100.00
59650;BME280;46162;57.568;25.814;2023-01-27T10:12:38;101838.47;;;-2.21;100.00
59650;BME280;46162;57.568;25.814;2023-01-27T10:15:21;101839.19;;;-2.16;100.00
59650;BME280;46162;57.568;25.814;2023-01-27T10:18:01;101847.00;;;-2.10;100.00
59650;BME280;46162;57.568;25.814;2023-01-27T10:20:39;101855.69;;;-2.06;100.00
59650;BME280;46162;57.568;25.814;2023-01-27T10:23:20;101854.94;;;-2.10;100.00
59650;BME280;46162;57.568;25.814;2023-01-27T10:25:57;101857.38;;;-2.04;100.00
59650;BME280;46162;57.568;25.814;2023-01-27T10:28:31;101870.38;;;-1.95;100.00
59650;BME280;46162;57.568;25.814;2023-01-27T10:31:08;101864.25;;;-1.97;100.00
59650;BME280;46162;57.568;25.814;2023-01-27T10:33:48;101862.53;;;-1.98;100.00
59650;BME280;46162;57.568;25.814;2023-01-27T10:36:25;101864.91;;;-1.88;100.00
59650;BME280;46162;57.568;25.814;2023-01-27T10:39:05;101865.56;;;-1.80;100.00
59650;BME280;46162;57.568;25.814;2023-01-27T10:41:46;101871.97;;;-1.58;100.00
59650;BME280;46162;57.568;25.814;2023-01-27T10:44:28;101870.50;;;-1.68;100.00
59650;BME280;46162;57.568;25.814;2023-01-27T10:47:09;101873.06;;;-1.65;100.00
59650;BME280;46162;57.568;25.814;2023-01-27T10:49:44;101865.13;;;-1.65;100.00
59650;BME280;46162;57.568;25.814;2023-01-27T10:52:18;101859.81;;;-1.65;100.00
59650;BME280;46162;57.568;25.814;2023-01-27T10:54:52;101867.69;;;-1.63;100.00
59650;BME280;46162;57.568;25.814;2023-01-27T10:57:26;101866.75;;;-1.61;100.00
59650;BME280;46162;57.568;25.814;2023-01-27T11:00:02;101870.50;;;-1.68;100.00
59650;BME280;46162;57.568;25.814;2023-01-27T11:02:58;101874.16;;;-1.72;100.00
59650;BME280;46162;57.568;25.814;2023-01-27T11:05:33;101871.41;;;-1.69;100.00
59650;BME280;46162;57.568;25.814;2023-01-27T11:08:09;101873.91;;;-1.64;100.00
59650;BME280;46162;57.568;25.814;2023-01-27T11:10:42;101874.16;;;-1.72;100.00
59650;BME280;46162;57.568;25.814;2023-01-27T11:13:33;101877.13;;;-1.84;100.00
59650;BME280;46162;57.568;25.814;2023-01-27T11:16:03;101878.94;;;-1.85;100.00
59650;BME280;46162;57.568;25.814;2023-01-27T11:18:37;101873.63;;;-1.85;100.00
59650;BME280;46162;57.568;25.814;2023-01-27T11:21:09;101877.72;;;-1.73;100.00
59650;BME280;46162;57.568;25.814;2023-01-27T11:23:41;101875.44;;;-1.56;100.00
59650;BME280;46162;57.568;25.814;2023-01-27T11:26:18;101877.88;;;-1.79;100.00
59650;BME280;46162;57.568;25.814;2023-01-27T11:28:53;101872.94;;;-1.91;100.00
59650;BME280;46162;57.568;25.814;2023-01-27T11:31:32;101872.00;;;-1.90;100.00
59650;BME280;46162;57.568;25.814;2023-01-27T11:34:12;101878.97;;;-1.86;100.00
59650;BME280;46162;57.568;25.814;2023-01-27T11:36:43;101885.34;;;-1.93;100.00
59650;BME280;46162;57.568;25.814;2023-01-27T11:39:14;101881.22;;;-2.04;100.00
59650;BME280;46162;57.568;25.814;2023-01-27T11:41:47;101876.84;;;-2.05;100.00
59650;BME280;46162;57.568;25.814;2023-01-27T11:44:20;101877.00;;;-2.11;100.00
59650;BME280;46162;57.568;25.814;2023-01-27T11:46:49;101876.00;;;-2.07;100.00
59650;BME280;46162;57.568;25.814;2023-01-27T11:49:24;101871.53;;;-2.05;100.00
59650;BME280;46162;57.568;25.814;2023-01-27T11:51:59;101868.63;;;-1.96;100.00
59650;BME280;46162;57.568;25.814;2023-01-27T11:54:38;101869.53;;;-1.97;100.00
59650;BME280;46162;57.568;25.814;2023-01-27T11:57:16;101867.84;;;-1.99;100.00
59650;BME280;46162;57.568;25.814;2023-01-27T11:59:46;101865.97;;;-1.96;100.00
59650;BME280;46162;57.568;25.814;2023-01-27T12:02:23;101870.47;;;-1.98;100.00
59650;BME280;46162;57.568;25.814;2023-01-27T12:05:02;101859.78;;;-1.95;100.00
59650;BME280;46162;57.568;25.814;2023-01-27T12:07:43;101864.88;;;-1.87;100.00
59650;BME280;46162;57.568;25.814;2023-01-27T12:10:27;101863.13;;;-1.88;100.00
59650;BME280;46162;57.568;25.814;2023-01-27T12:12:58;101857.03;;;-1.91;100.00
59650;BME280;46162;57.568;25.814;2023-01-27T12:15:28;101860.53;;;-1.89;100.00
59650;BME280;46162;57.568;25.814;2023-01-27T12:17:59;101854.41;;;-1.91;100.00
59650;BME280;46162;57.568;25.814;2023-01-27T12:20:35;101858.03;;;-1.96;100.00
59650;BME280;46162;57.568;25.814;2023-01-27T12:23:16;101854.38;;;-1.90;100.00
59650;BME280;46162;57.568;25.814;2023-01-27T12:25:49;101857.34;;;-2.02;100.00
59650;BME280;46162;57.568;25.814;2023-01-27T12:28:26;101864.50;;;-2.06;100.00
59650;BME280;46162;57.568;25.814;2023-01-27T12:31:02;101862.78;;;-2.07;100.00
59650;BME280;46162;57.568;25.814;2023-01-27T12:33:32;101864.25;;;-1.97;100.00
59650;BME280;46162;57.568;25.814;2023-01-27T12:36:11;101870.59;;;-2.02;100.00
59650;BME280;46162;57.568;25.814;2023-01-27T12:38:44;101874.84;;;-1.97;100.00
59650;BME280;46162;57.568;25.814;2023-01-27T12:41:20;101874.84;;;-1.97;100.00
59650;BME280;46162;57.568;25.814;2023-01-27T12:43:52;101875.69;;;-1.96;100.00
59650;BME280;46162;57.568;25.814;2023-01-27T12:46:23;101879.94;;;-1.90;100.00
59650;BME280;46162;57.568;25.814;2023-01-27T12:48:54;101882.75;;;-1.95;100.00
59650;BME280;46162;57.568;25.814;2023-01-27T12:51:38;101882.13;;;-2.05;100.00
59650;BME280;46162;57.568;25.814;2023-01-27T12:54:15;101873.97;;;-1.97;100.00
59650;BME280;46162;57.568;25.814;2023-01-27T12:56:44;101889.94;;;-2.00;100.00
59650;BME280;46162;57.568;25.814;2023-01-27T12:59:14;101883.41;;;-1.88;100.00